createdAt,value
2023-02-19T00:01:47.254Z,99491.00
2023-02-19T00:04:22.126Z,99490.00
2023-02-19T00:06:49.739Z,99486.00
2023-02-19T00:09:19.286Z,99495.00
2023-02-19T00:11:47.616Z,99493.00
2023-02-19T00:14:21.366Z,99502.00
2023-02-19T00:16:49.101Z,99495.00
2023-02-19T00:19:19.532Z,99458.00
2023-02-19T00:21:47.691Z,99498.00
2023-02-19T00:24:15.634Z,99498.00
2023-02-19T00:26:44.712Z,99504.00
2023-02-19T00:29:20.318Z,99506.00
2023-02-19T00:31:47.549Z,99508.00
2023-02-19T00:34:15.302Z,99501.00
2023-02-19T00:36:43.021Z,99502.00
2023-02-19T00:39:15.700Z,99494.00
2023-02-19T00:41:43.161Z,99497.00
2023-02-19T00:44:12.418Z,99498.00
2023-02-19T00:46:44.388Z,99495.00
2023-02-19T00:49:19.818Z,99494.00
2023-02-19T00:51:47.670Z,99500.00
2023-02-19T00:54:15.062Z,99504.00
2023-02-19T00:56:42.481Z,99502.00
2023-02-19T00:59:10.149Z,99498.00
2023-02-19T01:01:37.526Z,99504.00
2023-02-19T01:04:06.567Z,99502.00
2023-02-19T01:06:34.694Z,99506.00
2023-02-19T01:09:02.123Z,99370.00
2023-02-19T01:11:29.028Z,99493.00
2023-02-19T01:14:01.174Z,99499.00
2023-02-19T01:16:28.105Z,99494.00
2023-02-19T01:18:57.170Z,99491.00
2023-02-19T01:21:27.287Z,99449.00
2023-02-19T01:23:55.138Z,99474.00
2023-02-19T01:26:26.539Z,99478.00
2023-02-19T01:28:53.554Z,99493.00
2023-02-19T01:31:24.499Z,99496.00
2023-02-19T01:33:58.426Z,99497.00
2023-02-19T01:36:26.814Z,99493.00
2023-02-19T01:38:54.240Z,99486.00
2023-02-19T01:41:25.270Z,99489.00
2023-02-19T01:44:11.465Z,99484.00
2023-02-19T01:46:41.003Z,99475.00
2023-02-19T01:49:19.090Z,99482.00
2023-02-19T01:51:52.866Z,99462.00
2023-02-19T01:54:25.123Z,99470.00
2023-02-19T01:56:54.360Z,99481.00
2023-02-19T01:59:21.755Z,99475.00
2023-02-19T02:01:49.584Z,99476.00
2023-02-19T02:04:18.984Z,99480.00
2023-02-19T02:06:56.015Z,99485.00
2023-02-19T02:09:46.896Z,99484.00
2023-02-19T02:12:14.226Z,99486.00
2023-02-19T02:14:47.305Z,99483.00
2023-02-19T02:17:26.343Z,99468.00
2023-02-19T02:20:14.885Z,99474.00
2023-02-19T02:23:21.471Z,99468.00
2023-02-19T02:26:40.601Z,99469.00
2023-02-19T02:29:49.001Z,99467.00
2023-02-19T02:32:30.034Z,99472.00
2023-02-19T02:35:05.602Z,99466.00
2023-02-19T02:37:37.857Z,99466.00
2023-02-19T02:40:06.764Z,99459.00
2023-02-19T02:42:35.483Z,99457.00
2023-02-19T02:45:36.040Z,99454.00
2023-02-19T02:48:18.895Z,99450.00
2023-02-19T02:51:11.447Z,99460.00
2023-02-19T02:54:17.252Z,99461.00
2023-02-19T02:56:47.928Z,99468.00
2023-02-19T02:59:19.846Z,99436.00
2023-02-19T03:02:08.192Z,99463.00
2023-02-19T03:05:28.009Z,99468.00
2023-02-19T03:08:12.423Z,99467.00
2023-02-19T03:11:24.248Z,99463.00
2023-02-19T03:14:23.558Z,99463.00
2023-02-19T03:17:17.620Z,99461.00
2023-02-19T03:19:51.002Z,99466.00
2023-02-19T03:22:30.886Z,99460.00
2023-02-19T03:25:24.899Z,99452.00
2023-02-19T03:27:56.148Z,99458.00
2023-02-19T03:30:31.202Z,99465.00
2023-02-19T03:33:13.300Z,99457.00
2023-02-19T03:36:06.343Z,99465.00
2023-02-19T03:38:50.096Z,99468.00
2023-02-19T03:41:38.404Z,99464.00
2023-02-19T03:44:40.521Z,99457.00
2023-02-19T03:47:26.863Z,99456.00
2023-02-19T03:50:19.689Z,99462.00
2023-02-19T03:53:28.467Z,99463.00
2023-02-19T03:56:41.098Z,99456.00
2023-02-19T03:59:30.909Z,99467.00
2023-02-19T04:02:18.129Z,99457.00
2023-02-19T04:04:54.842Z,99459.00
2023-02-19T04:07:25.180Z,99456.00
2023-02-19T04:09:54.283Z,99454.00
2023-02-19T04:12:23.464Z,99415.00
2023-02-19T04:15:02.450Z,99454.00
2023-02-19T04:17:42.200Z,99458.00
2023-02-19T04:20:12.982Z,99456.00
2023-02-19T04:22:41.779Z,99455.00
2023-02-19T04:25:09.385Z,99460.00
2023-02-19T04:27:41.550Z,99463.00
2023-02-19T04:30:12.068Z,99464.00
2023-02-19T04:32:38.917Z,99455.00
2023-02-19T04:35:06.323Z,99461.00
2023-02-19T04:37:33.213Z,99462.00
2023-02-19T04:40:00.115Z,99462.00
2023-02-19T04:42:26.975Z,99456.00
2023-02-19T04:44:53.780Z,99468.00
2023-02-19T04:47:20.659Z,99469.00
2023-02-19T04:49:47.482Z,99477.00
2023-02-19T04:52:14.428Z,99469.00
2023-02-19T04:54:41.234Z,99464.00
2023-02-19T04:57:08.063Z,99460.00
2023-02-19T04:59:34.902Z,99464.00
2023-02-19T05:02:01.776Z,99462.00
2023-02-19T05:04:28.632Z,99455.00
2023-02-19T05:06:55.524Z,99425.00
2023-02-19T05:09:22.409Z,99444.00
2023-02-19T05:11:49.323Z,99447.00
2023-02-19T05:14:17.095Z,99449.00
2023-02-19T05:16:43.963Z,99450.00
2023-02-19T05:19:13.827Z,99448.00
2023-02-19T05:21:40.956Z,99447.00
2023-02-19T05:24:08.461Z,99446.00
2023-02-19T05:26:35.643Z,99454.00
2023-02-19T05:29:03.470Z,99456.00
2023-02-19T05:31:30.557Z,99456.00
2023-02-19T05:33:57.649Z,99456.00
2023-02-19T05:36:24.537Z,99456.00
2023-02-19T05:38:56.701Z,99460.00
2023-02-19T05:41:29.990Z,99463.00
2023-02-19T05:43:58.146Z,99452.00
2023-02-19T05:46:29.770Z,99460.00
2023-02-19T05:49:01.026Z,99468.00
2023-02-19T05:51:27.999Z,99462.00
2023-02-19T05:53:56.835Z,99470.00
2023-02-19T05:56:26.342Z,99474.00
2023-02-19T05:58:56.077Z,99463.00
2023-02-19T06:01:27.538Z,99478.00
2023-02-19T06:03:57.381Z,99471.00
2023-02-19T06:06:25.356Z,99486.00
2023-02-19T06:08:52.496Z,99482.00
2023-02-19T06:11:19.959Z,99486.00
2023-02-19T06:13:47.308Z,99490.00
2023-02-19T06:16:14.251Z,99497.00
2023-02-19T06:18:41.270Z,99504.00
2023-02-19T06:21:11.284Z,99501.00
2023-02-19T06:23:39.441Z,99502.00
2023-02-19T06:26:20.574Z,99502.00
2023-02-19T06:28:51.557Z,99504.00
2023-02-19T06:31:22.779Z,99508.00
2023-02-19T06:33:50.726Z,99508.00
2023-02-19T06:36:20.797Z,99508.00
2023-02-19T06:38:47.791Z,99479.00
2023-02-19T06:41:15.156Z,99483.00
2023-02-19T06:43:42.391Z,99514.00
2023-02-19T06:46:12.059Z,99515.00
2023-02-19T06:48:40.511Z,99517.00
2023-02-19T06:51:08.200Z,99516.00
2023-02-19T06:53:35.166Z,99515.00
2023-02-19T06:56:27.620Z,99525.00
2023-02-19T06:59:00.589Z,99525.00
2023-02-19T07:01:29.292Z,99518.00
2023-02-19T07:03:56.217Z,99529.00
2023-02-19T07:06:24.862Z,99530.00
2023-02-19T07:08:53.992Z,99529.00
2023-02-19T07:11:21.350Z,99532.00
2023-02-19T07:13:48.145Z,99537.00
2023-02-19T07:16:15.490Z,99536.00
2023-02-19T07:18:42.393Z,99544.00
2023-02-19T07:21:14.864Z,99546.00
2023-02-19T07:23:43.291Z,99543.00
2023-02-19T07:26:13.696Z,99533.00
2023-02-19T07:28:42.485Z,99547.00
2023-02-19T07:31:10.063Z,99560.00
2023-02-19T07:33:37.453Z,99539.00
2023-02-19T07:36:06.939Z,99556.00
2023-02-19T07:38:33.786Z,99560.00
2023-02-19T07:41:03.808Z,99549.00
2023-02-19T07:43:34.584Z,99434.00
2023-02-19T07:46:11.680Z,99573.00
2023-02-19T07:48:40.220Z,99567.00
2023-02-19T07:51:12.250Z,99582.00
2023-02-19T07:53:39.424Z,99582.00
2023-02-19T07:56:08.599Z,99583.00
2023-02-19T07:58:35.609Z,99587.00
2023-02-19T08:01:18.995Z,99597.00
2023-02-19T08:03:48.260Z,99597.00
2023-02-19T08:06:16.979Z,99594.00
2023-02-19T08:08:43.820Z,99616.00
2023-02-19T08:11:29.559Z,99606.00
2023-02-19T08:13:56.481Z,99611.00
2023-02-19T08:16:36.740Z,99613.00
2023-02-19T08:19:07.942Z,99620.00
2023-02-19T08:21:34.757Z,99613.00
2023-02-19T08:24:01.647Z,99608.00
2023-02-19T08:26:28.506Z,99615.00
2023-02-19T08:28:55.355Z,99621.00
2023-02-19T08:31:22.424Z,99619.00
2023-02-19T08:33:49.358Z,99627.00
2023-02-19T08:36:16.450Z,99628.00
2023-02-19T08:38:43.390Z,99626.00
2023-02-19T08:41:14.124Z,99627.00
2023-02-19T08:43:42.794Z,99629.00
2023-02-19T08:46:13.044Z,99639.00
2023-02-19T08:48:40.664Z,99630.00
2023-02-19T08:51:11.454Z,99640.00
2023-02-19T08:53:40.740Z,99629.00
2023-02-19T08:56:15.921Z,99643.00
2023-02-19T08:58:43.882Z,99633.00
2023-02-19T09:01:15.080Z,99642.00
2023-02-19T09:03:42.679Z,99654.00
2023-02-19T09:06:17.330Z,99617.00
2023-02-19T09:08:44.372Z,99658.00
2023-02-19T09:11:11.806Z,99669.00
2023-02-19T09:13:38.907Z,99663.00
2023-02-19T09:16:06.866Z,99673.00
2023-02-19T09:18:35.792Z,99669.00
2023-02-19T09:21:05.512Z,99659.00
2023-02-19T09:23:36.902Z,99667.00
2023-02-19T09:26:08.546Z,99662.00
2023-02-19T09:28:36.085Z,99673.00
2023-02-19T09:31:11.300Z,99674.00
2023-02-19T09:33:42.369Z,99677.00
2023-02-19T09:36:09.509Z,99673.00
2023-02-19T09:38:36.358Z,99677.00
2023-02-19T09:41:29.884Z,99684.00
2023-02-19T09:44:00.242Z,99688.00
2023-02-19T09:46:51.528Z,99686.00
2023-02-19T09:49:38.975Z,99694.00
2023-02-19T09:52:40.129Z,99697.00
2023-02-19T09:55:38.984Z,99716.00
2023-02-19T09:58:35.593Z,99713.00
2023-02-19T10:01:05.156Z,99713.00
2023-02-19T10:03:41.317Z,99680.00
2023-02-19T10:06:26.633Z,99726.00
2023-02-19T10:09:25.452Z,99725.00
2023-02-19T10:11:59.953Z,99726.00
2023-02-19T10:14:40.542Z,99716.00
2023-02-19T10:17:17.665Z,99724.00
2023-02-19T10:19:44.550Z,99718.00
2023-02-19T10:22:13.433Z,99727.00
2023-02-19T10:24:43.745Z,99710.00
2023-02-19T10:27:16.586Z,99742.00
2023-02-19T10:29:54.708Z,99742.00
2023-02-19T10:32:25.120Z,99746.00
2023-02-19T10:35:14.097Z,99749.00
2023-02-19T10:37:50.965Z,99741.00
2023-02-19T10:40:22.447Z,99663.00
2023-02-19T10:42:54.371Z,99757.00
2023-02-19T10:45:34.377Z,99754.00
2023-02-19T10:48:01.738Z,99758.00
2023-02-19T10:50:35.291Z,99748.00
2023-02-19T10:53:02.234Z,99741.00
2023-02-19T10:55:37.982Z,99750.00
2023-02-19T10:58:27.732Z,99755.00
2023-02-19T11:01:23.326Z,99746.00
2023-02-19T11:03:53.742Z,99741.00
2023-02-19T11:06:26.774Z,99731.00
2023-02-19T11:08:55.696Z,99752.00
2023-02-19T11:11:36.301Z,99753.00
2023-02-19T11:14:19.785Z,99768.00
2023-02-19T11:16:52.364Z,99764.00
2023-02-19T11:19:43.878Z,99769.00
2023-02-19T11:22:49.769Z,99781.00
2023-02-19T11:25:17.131Z,99780.00
2023-02-19T11:28:24.158Z,99785.00
2023-02-19T11:30:51.263Z,99789.00
2023-02-19T11:33:21.934Z,99785.00
2023-02-19T11:36:11.703Z,99783.00
2023-02-19T11:38:38.562Z,99771.00
2023-02-19T11:41:24.429Z,99771.00
2023-02-19T11:44:05.275Z,99763.00
2023-02-19T11:46:51.233Z,99773.00
2023-02-19T11:50:06.659Z,99774.00
2023-02-19T11:53:10.641Z,99778.00
2023-02-19T11:55:48.185Z,99780.00
2023-02-19T11:58:56.115Z,99778.00
2023-02-19T12:01:47.422Z,99774.00
2023-02-19T12:04:49.759Z,99779.00
2023-02-19T12:07:57.394Z,99787.00
2023-02-19T12:10:42.324Z,99794.00
2023-02-19T12:13:33.292Z,99803.00
2023-02-19T12:16:25.831Z,99799.00
2023-02-19T12:19:01.314Z,99791.00
2023-02-19T12:22:01.186Z,99805.00
2023-02-19T12:24:46.831Z,99823.00
2023-02-19T12:27:49.300Z,99791.00
2023-02-19T12:31:01.251Z,99825.00
2023-02-19T12:33:33.871Z,99803.00
2023-02-19T12:36:30.046Z,99809.00
2023-02-19T12:39:40.568Z,99819.00
2023-02-19T12:42:36.624Z,99821.00
2023-02-19T12:45:35.216Z,99817.00
2023-02-19T12:48:15.261Z,99826.00
2023-02-19T12:50:45.149Z,99833.00
2023-02-19T12:53:38.507Z,99843.00
2023-02-19T12:56:38.399Z,99849.00
2023-02-19T12:59:12.043Z,99839.00
2023-02-19T13:01:54.209Z,99848.00
2023-02-19T13:04:50.902Z,99852.00
2023-02-19T13:07:24.122Z,99852.00
2023-02-19T13:09:59.362Z,99851.00
2023-02-19T13:12:41.099Z,99847.00
2023-02-19T13:15:37.134Z,99833.00
2023-02-19T13:18:14.537Z,99838.00
2023-02-19T13:20:44.728Z,99831.00
2023-02-19T13:23:42.656Z,99845.00
2023-02-19T13:26:57.221Z,99855.00
2023-02-19T13:29:38.478Z,99860.00
2023-02-19T13:32:36.009Z,99872.00
2023-02-19T13:35:53.954Z,99868.00
2023-02-19T13:38:21.263Z,99872.00
2023-02-19T13:40:56.701Z,99869.00
2023-02-19T13:43:38.808Z,99878.00
2023-02-19T13:46:14.067Z,99874.00
2023-02-19T13:48:44.319Z,99888.00
2023-02-19T13:51:18.792Z,99880.00
2023-02-19T13:53:45.597Z,99881.00
2023-02-19T13:56:36.390Z,99891.00
2023-02-19T13:59:12.391Z,99890.00
2023-02-19T14:01:53.897Z,99894.00
2023-02-19T14:04:32.385Z,99915.00
2023-02-19T14:07:05.204Z,99896.00
2023-02-19T14:09:37.679Z,99904.00
2023-02-19T14:12:09.597Z,99904.00
2023-02-19T14:14:41.565Z,99903.00
2023-02-19T14:17:42.437Z,99907.00
2023-02-19T14:20:09.332Z,99923.00
2023-02-19T14:22:56.857Z,99919.00
2023-02-19T14:25:50.238Z,99917.00
2023-02-19T14:28:23.101Z,99911.00
2023-02-19T14:31:11.295Z,99932.00
2023-02-19T14:33:46.007Z,99924.00
2023-02-19T14:37:00.733Z,99931.00
2023-02-19T14:39:38.746Z,99924.00
2023-02-19T14:42:20.869Z,99940.00
2023-02-19T14:44:55.312Z,99924.00
2023-02-19T14:47:25.701Z,99940.00
2023-02-19T14:50:02.800Z,99931.00
2023-02-19T14:52:44.448Z,99950.00
2023-02-19T14:55:17.634Z,99944.00
2023-02-19T14:57:48.893Z,99962.00
2023-02-19T15:00:39.219Z,99956.00
2023-02-19T15:03:26.195Z,99968.00
2023-02-19T15:06:17.983Z,99956.00
2023-02-19T15:08:51.404Z,99950.00
2023-02-19T15:11:24.524Z,99953.00
2023-02-19T15:14:05.605Z,99978.00
2023-02-19T15:16:36.227Z,99973.00
2023-02-19T15:19:09.503Z,99980.00
2023-02-19T15:21:45.653Z,99984.00
2023-02-19T15:24:16.918Z,99984.00
2023-02-19T15:26:50.882Z,99986.00
2023-02-19T15:29:21.449Z,99983.00
2023-02-19T15:31:59.956Z,99992.00
2023-02-19T15:34:29.710Z,100006.00
2023-02-19T15:37:04.036Z,100012.00
2023-02-19T15:39:41.944Z,100010.00
2023-02-19T15:42:17.406Z,100009.00
2023-02-19T15:44:51.990Z,100013.00
2023-02-19T15:47:29.740Z,100012.00
2023-02-19T15:50:15.041Z,100020.00
2023-02-19T15:53:09.460Z,100011.00
2023-02-19T15:55:51.189Z,100021.00
2023-02-19T15:58:32.520Z,100029.00
2023-02-19T16:01:15.427Z,100036.00
2023-02-19T16:03:43.205Z,100033.00
2023-02-19T16:06:17.318Z,100033.00
2023-02-19T16:08:52.291Z,100036.00
2023-02-19T16:11:22.390Z,100048.00
2023-02-19T16:13:51.380Z,100048.00
2023-02-19T16:16:35.955Z,100045.00
2023-02-19T16:19:03.213Z,100052.00
2023-02-19T16:21:30.136Z,100059.00
2023-02-19T16:24:26.982Z,100036.00
2023-02-19T16:26:58.392Z,100074.00
2023-02-19T16:29:32.455Z,100085.00
2023-02-19T16:32:06.865Z,100099.00
2023-02-19T16:34:50.607Z,100102.00
2023-02-19T16:37:37.310Z,100107.00
2023-02-19T16:40:13.636Z,100110.00
2023-02-19T16:42:51.921Z,100115.00
2023-02-19T16:45:19.127Z,100118.00
2023-02-19T16:47:51.166Z,100117.00
2023-02-19T16:50:23.546Z,100121.00
2023-02-19T16:52:59.374Z,100116.00
2023-02-19T16:55:28.085Z,100134.00
2023-02-19T16:57:55.955Z,100134.00
2023-02-19T17:00:29.624Z,100135.00
2023-02-19T17:03:02.034Z,100128.00
2023-02-19T17:05:32.442Z,100139.00
2023-02-19T17:07:59.604Z,100134.00
2023-02-19T17:10:28.145Z,100136.00
2023-02-19T17:12:56.073Z,100131.00
2023-02-19T17:15:24.834Z,100130.00
2023-02-19T17:17:51.916Z,100123.00
2023-02-19T17:20:28.237Z,100122.00
2023-02-19T17:22:56.678Z,100127.00
2023-02-19T17:25:23.831Z,100127.00
2023-02-19T17:27:50.729Z,100122.00
2023-02-19T17:30:29.135Z,100123.00
2023-02-19T17:32:56.470Z,100116.00
2023-02-19T17:35:23.618Z,100113.00
2023-02-19T17:37:53.256Z,100117.00
2023-02-19T17:40:33.736Z,100120.00
2023-02-19T17:43:01.869Z,100107.00
2023-02-19T17:45:29.033Z,100103.00
2023-02-19T17:47:56.228Z,100118.00
2023-02-19T17:50:27.749Z,100109.00
2023-02-19T17:52:54.731Z,100109.00
2023-02-19T17:55:21.677Z,100107.00
2023-02-19T17:57:51.083Z,100113.00
2023-02-19T18:00:25.970Z,100118.00
2023-02-19T18:02:53.452Z,100111.00
2023-02-19T18:05:21.583Z,100120.00
2023-02-19T18:07:49.636Z,100115.00
2023-02-19T18:10:19.974Z,100140.00
2023-02-19T18:12:47.459Z,100115.00
2023-02-19T18:15:22.126Z,100136.00
2023-02-19T18:17:49.700Z,100152.00
2023-02-19T18:20:21.244Z,100135.00
2023-02-19T18:22:48.139Z,100158.00
2023-02-19T18:25:16.786Z,100158.00
2023-02-19T18:27:43.642Z,100154.00
2023-02-19T18:30:12.352Z,100152.00
2023-02-19T18:32:39.421Z,100159.00
2023-02-19T18:35:06.926Z,100170.00
2023-02-19T18:37:34.211Z,100160.00
2023-02-19T18:40:03.563Z,100150.00
2023-02-19T18:42:34.217Z,100156.00
2023-02-19T18:45:01.623Z,100153.00
2023-02-19T18:47:28.666Z,100149.00
2023-02-19T18:49:57.999Z,100158.00
2023-02-19T19:06:43.719Z,100143.00
2023-02-19T19:09:10.744Z,100146.00
2023-02-19T19:11:38.453Z,100153.00
2023-02-19T19:14:05.356Z,100140.00
2023-02-19T19:16:32.280Z,100134.00
2023-02-19T19:19:02.304Z,100140.00
2023-02-19T19:21:29.322Z,100144.00
2023-02-19T19:23:56.229Z,100142.00
2023-02-19T19:26:23.076Z,100144.00
2023-02-19T19:28:50.092Z,100133.00
2023-02-19T19:31:19.207Z,100140.00
2023-02-19T19:33:48.612Z,100131.00
2023-02-19T19:36:20.549Z,100128.00
2023-02-19T19:38:48.781Z,100111.00
2023-02-19T19:41:19.450Z,100123.00
2023-02-19T19:43:47.360Z,100131.00
2023-02-19T19:46:20.081Z,100115.00
2023-02-19T19:48:50.930Z,100130.00
2023-02-19T19:51:18.469Z,100124.00
2023-02-19T19:53:49.994Z,100116.00
2023-02-19T19:56:18.852Z,100114.00
2023-02-19T19:58:47.527Z,100126.00
2023-02-19T20:01:15.040Z,100124.00
2023-02-19T20:03:43.066Z,100126.00
2023-02-19T20:06:09.909Z,100118.00
2023-02-19T20:08:36.770Z,100113.00
2023-02-19T20:11:03.862Z,100098.00
2023-02-19T20:13:32.444Z,100103.00
2023-02-19T20:15:59.465Z,100108.00
2023-02-19T20:18:27.486Z,100116.00
2023-02-19T20:20:54.336Z,100125.00
2023-02-19T20:23:21.305Z,100115.00
2023-02-19T20:25:48.314Z,100113.00
2023-02-19T20:28:15.291Z,100125.00
2023-02-19T20:30:43.777Z,100126.00
2023-02-19T20:33:10.690Z,100126.00
2023-02-19T20:35:37.601Z,100123.00
2023-02-19T20:38:04.485Z,100132.00
2023-02-19T20:40:32.751Z,100121.00
2023-02-19T20:43:01.084Z,100123.00
2023-02-19T20:45:28.724Z,100115.00
2023-02-19T20:47:55.628Z,100107.00
2023-02-19T20:50:23.349Z,100115.00
2023-02-19T20:52:50.573Z,100112.00
2023-02-19T20:55:17.504Z,100107.00
2023-02-19T20:57:45.696Z,100110.00
2023-02-19T21:00:15.473Z,100106.00
2023-02-19T21:02:42.656Z,100108.00
2023-02-19T21:05:10.294Z,100112.00
2023-02-19T21:07:37.266Z,100119.00
2023-02-19T21:10:04.791Z,100111.00
2023-02-19T21:12:33.581Z,100115.00
2023-02-19T21:15:00.652Z,100110.00
2023-02-19T21:17:27.526Z,100105.00
2023-02-19T21:19:54.609Z,100039.00
2023-02-19T21:22:22.668Z,100097.00
2023-02-19T21:24:53.696Z,100109.00
2023-02-19T21:27:21.238Z,100092.00
2023-02-19T21:29:48.160Z,100097.00
2023-02-19T21:32:15.210Z,100102.00
2023-02-19T21:34:42.717Z,100094.00
2023-02-19T21:37:09.601Z,100106.00
2023-02-19T21:39:36.454Z,100107.00
2023-02-19T21:42:03.863Z,100111.00
2023-02-19T21:44:31.771Z,100114.00
2023-02-19T21:46:58.926Z,100120.00
2023-02-19T21:49:25.973Z,100119.00
2023-02-19T21:51:53.029Z,100105.00
2023-02-19T21:54:24.956Z,100117.00
2023-02-19T21:56:53.639Z,100116.00
2023-02-19T21:59:22.490Z,100136.00
2023-02-19T22:01:50.571Z,100120.00
2023-02-19T22:04:21.172Z,100119.00
2023-02-19T22:06:48.454Z,100137.00
2023-02-19T22:09:15.852Z,100145.00
2023-02-19T22:11:43.172Z,100121.00
2023-02-19T22:14:10.066Z,100124.00
2023-02-19T22:16:37.063Z,100130.00
2023-02-19T22:19:04.340Z,100119.00
2023-02-19T22:21:34.936Z,100125.00
2023-02-19T22:24:03.262Z,100109.00
2023-02-19T22:26:36.406Z,100120.00
2023-02-19T22:29:07.129Z,100125.00
2023-02-19T22:31:35.598Z,100114.00
2023-02-19T22:34:03.967Z,100119.00
2023-02-19T22:36:33.684Z,100124.00
2023-02-19T22:39:01.642Z,100134.00
2023-02-19T22:41:29.091Z,100140.00
2023-02-19T22:43:58.007Z,100129.00
2023-02-19T22:46:28.937Z,100142.00
2023-02-19T22:48:56.559Z,100141.00
2023-02-19T22:51:25.071Z,100158.00
2023-02-19T22:53:55.813Z,100143.00
2023-02-19T22:56:28.314Z,100143.00
2023-02-19T22:58:57.403Z,100128.00
2023-02-19T23:01:25.900Z,100138.00
2023-02-19T23:03:58.513Z,100136.00
2023-02-19T23:06:32.938Z,100128.00
2023-02-19T23:09:09.001Z,100141.00
2023-02-19T23:11:39.152Z,100126.00
2023-02-19T23:14:07.427Z,100128.00
2023-02-19T23:16:36.609Z,100107.00
2023-02-19T23:19:11.412Z,100098.00
2023-02-19T23:21:44.185Z,100117.00
2023-02-19T23:24:12.411Z,100102.00
2023-02-19T23:26:53.718Z,100114.00
2023-02-19T23:29:27.277Z,100118.00
2023-02-19T23:31:55.073Z,100133.00
2023-02-19T23:34:22.692Z,100128.00
2023-02-19T23:36:50.898Z,100109.00
2023-02-19T23:39:21.497Z,100118.00
2023-02-19T23:41:52.696Z,100123.00
2023-02-19T23:44:22.124Z,100094.00
2023-02-19T23:46:50.403Z,100127.00
2023-02-19T23:49:19.022Z,100115.00
2023-02-19T23:51:46.036Z,100132.00
2023-02-19T23:54:12.893Z,100130.00
2023-02-19T23:56:39.917Z,100126.00
2023-02-19T23:59:06.993Z,100133.00
